Huvudsida
METAR-TAF:

METAR-TAF

Flygplatser :

Genèves internationella flygplats

Genève, Schweiz

latitud: 46-15N, longitud: 006-08E, höjd: 420 m

Aktuellt väderrapport

Denna rapport gjordes för 29 minuter sedan, klockan 20:20 UTC
Vind 5 kt från nord/nordost
Temperatur 6°C
Fuktighet 87%
Tryck 1024 hPa
Sikt: 9000 m
Spridda moln på en höjd av 1300 ft
Mulet på en höjd av 1600 ft

METAR: LSGG 162020Z 02005KT 9000 SCT013 OVC016 06/04 Q1024 NOSIG

Tid: 21:49 (20:49 UTC)

Väderprognos

Denna rapport gjordes för 24 minuter sedan, klockan 20:25 UTC
Prognos gäller från 16 kl. 21 UTC till 18 kl. 03 UTC
Vind 6 kt från nord/nordost
Sikt: 8000 m
Spridda moln på en höjd av 1300 ft
Mulet på en höjd av 1600 ft
Sannolikhet 30% :
Temporärt
från 16 kl. 22 UTC till 17 kl. 06 UTC
Sikt: 3000 m
fuktdis

TAF: LSGG 162025Z 1621/1803 02006KT 8000 SCT013 OVC016 TX06/1715Z TN05/1706Z PROB30 TEMPO 1622/1706 3000 BR

Aktuella väderrapporter och prognoser från 4000 flygplatser (METAR- och TAF-rapporter).

De tillgängliga stationerna syns som gula och röda prickar på kartan.

För musen över prickarna för att se namnen på stationerna.

Klicka sedan för att få väderrapporter och prognoser.

För att ändra kartan: Klicka på de gröna knapparna med ett svart kors på för att zooma in; den gröna knappen med ett streck på för att zooma ut; eller på de gröna pilarna för angränsande kartor.


METAR-TAF: